sensor_id;sensor_type;location;lat;lon;timestamp;temperature;humidity
34542;DHT22;20784;51.332;12.410;2024-01-25T00:02:32;9.70;99.90
34542;DHT22;20784;51.332;12.410;2024-01-25T00:05:04;9.30;99.90
34542;DHT22;20784;51.332;12.410;2024-01-25T00:07:33;9.40;99.90
34542;DHT22;20784;51.332;12.410;2024-01-25T00:10:01;9.40;99.90
34542;DHT22;20784;51.332;12.410;2024-01-25T00:15:27;9.30;99.90
34542;DHT22;20784;51.332;12.410;2024-01-25T00:17:53;9.80;99.90
34542;DHT22;20784;51.332;12.410;2024-01-25T00:20:19;9.40;99.90
34542;DHT22;20784;51.332;12.410;2024-01-25T00:22:47;9.80;99.90
34542;DHT22;20784;51.332;12.410;2024-01-25T00:25:36;9.40;99.90
34542;DHT22;20784;51.332;12.410;2024-01-25T00:28:02;10.10;99.90
34542;DHT22;20784;51.332;12.410;2024-01-25T00:30:28;9.40;99.90
34542;DHT22;20784;51.332;12.410;2024-01-25T00:32:57;9.40;99.90
34542;DHT22;20784;51.332;12.410;2024-01-25T00:35:26;9.30;99.90
34542;DHT22;20784;51.332;12.410;2024-01-25T00:37:55;9.30;99.90
34542;DHT22;20784;51.332;12.410;2024-01-25T00:40:21;9.40;99.90
34542;DHT22;20784;51.332;12.410;2024-01-25T00:42:50;8.90;99.90
34542;DHT22;20784;51.332;12.410;2024-01-25T00:45:29;9.40;99.90
34542;DHT22;20784;51.332;12.410;2024-01-25T00:48:15;9.40;99.90
34542;DHT22;20784;51.332;12.410;2024-01-25T00:50:42;9.30;99.90
34542;DHT22;20784;51.332;12.410;2024-01-25T00:53:13;9.30;99.90
34542;DHT22;20784;51.332;12.410;2024-01-25T00:55:39;8.30;99.90
34542;DHT22;20784;51.332;12.410;2024-01-25T00:58:23;9.30;99.90
34542;DHT22;20784;51.332;12.410;2024-01-25T01:00:50;9.30;99.90
34542;DHT22;20784;51.332;12.410;2024-01-25T01:03:18;9.30;99.90
34542;DHT22;20784;51.332;12.410;2024-01-25T01:08:24;9.50;99.90
34542;DHT22;20784;51.332;12.410;2024-01-25T01:11:00;9.50;99.90
34542;DHT22;20784;51.332;12.410;2024-01-25T01:13:31;8.20;99.90
34542;DHT22;20784;51.332;12.410;2024-01-25T01:16:11;9.60;99.90
34542;DHT22;20784;51.332;12.410;2024-01-25T01:18:47;9.30;99.90
34542;DHT22;20784;51.332;12.410;2024-01-25T01:21:13;10.30;99.90
34542;DHT22;20784;51.332;12.410;2024-01-25T01:23:39;9.30;99.90
34542;DHT22;20784;51.332;12.410;2024-01-25T01:26:07;9.20;99.90
34542;DHT22;20784;51.332;12.410;2024-01-25T01:28:33;9.20;99.90
34542;DHT22;20784;51.332;12.410;2024-01-25T01:31:04;8.80;99.90
34542;DHT22;20784;51.332;12.410;2024-01-25T01:33:32;9.00;99.90
34542;DHT22;20784;51.332;12.410;2024-01-25T01:35:58;9.80;99.90
34542;DHT22;20784;51.332;12.410;2024-01-25T01:39:12;9.80;99.90
34542;DHT22;20784;51.332;12.410;2024-01-25T01:41:47;9.60;99.90
34542;DHT22;20784;51.332;12.410;2024-01-25T01:44:18;9.20;99.90
34542;DHT22;20784;51.332;12.410;2024-01-25T01:46:57;9.20;99.90
34542;DHT22;20784;51.332;12.410;2024-01-25T01:49:27;9.20;99.90
34542;DHT22;20784;51.332;12.410;2024-01-25T01:51:59;9.70;99.90
34542;DHT22;20784;51.332;12.410;2024-01-25T01:54:29;9.20;99.90
34542;DHT22;20784;51.332;12.410;2024-01-25T01:57:21;8.90;99.90
34542;DHT22;20784;51.332;12.410;2024-01-25T01:59:53;9.20;99.90
34542;DHT22;20784;51.332;12.410;2024-01-25T02:02:29;9.20;99.90
34542;DHT22;20784;51.332;12.410;2024-01-25T02:05:04;9.20;99.90
34542;DHT22;20784;51.332;12.410;2024-01-25T02:07:30;9.20;99.90
34542;DHT22;20784;51.332;12.410;2024-01-25T02:10:01;9.20;99.90
34542;DHT22;20784;51.332;12.410;2024-01-25T02:12:27;9.00;99.90
34542;DHT22;20784;51.332;12.410;2024-01-25T02:14:53;9.10;99.90
34542;DHT22;20784;51.332;12.410;2024-01-25T02:17:19;9.10;99.90
34542;DHT22;20784;51.332;12.410;2024-01-25T02:19:47;9.10;99.90
34542;DHT22;20784;51.332;12.410;2024-01-25T02:22:19;9.10;99.90
34542;DHT22;20784;51.332;12.410;2024-01-25T02:24:48;9.10;99.90
34542;DHT22;20784;51.332;12.410;2024-01-25T02:27:22;8.90;99.90
34542;DHT22;20784;51.332;12.410;2024-01-25T02:29:50;9.10;99.90
34542;DHT22;20784;51.332;12.410;2024-01-25T02:32:28;8.80;99.90
34542;DHT22;20784;51.332;12.410;2024-01-25T02:35:11;9.00;99.90
34542;DHT22;20784;51.332;12.410;2024-01-25T02:37:42;9.90;99.90
34542;DHT22;20784;51.332;12.410;2024-01-25T02:40:33;9.10;99.90
34542;DHT22;20784;51.332;12.410;2024-01-25T02:43:12;8.40;99.90
34542;DHT22;20784;51.332;12.410;2024-01-25T02:45:45;8.90;99.90
34542;DHT22;20784;51.332;12.410;2024-01-25T02:48:21;9.30;99.90
34542;DHT22;20784;51.332;12.410;2024-01-25T02:50:58;8.90;99.90
34542;DHT22;20784;51.332;12.410;2024-01-25T02:53:47;8.90;99.90
34542;DHT22;20784;51.332;12.410;2024-01-25T02:56:32;8.80;99.90
34542;DHT22;20784;51.332;12.410;2024-01-25T02:59:03;8.80;99.90
34542;DHT22;20784;51.332;12.410;2024-01-25T03:01:38;8.80;99.90
34542;DHT22;20784;51.332;12.410;2024-01-25T03:04:04;8.80;99.90
34542;DHT22;20784;51.332;12.410;2024-01-25T03:06:29;9.50;99.90
34542;DHT22;20784;51.332;12.410;2024-01-25T03:08:57;8.70;99.90
34542;DHT22;20784;51.332;12.410;2024-01-25T03:11:31;7.70;99.90
34542;DHT22;20784;51.332;12.410;2024-01-25T03:14:04;9.40;99.90
34542;DHT22;20784;51.332;12.410;2024-01-25T03:16:40;8.60;99.90
34542;DHT22;20784;51.332;12.410;2024-01-25T03:19:06;9.00;99.90
34542;DHT22;20784;51.332;12.410;2024-01-25T03:21:40;8.60;99.90
34542;DHT22;20784;51.332;12.410;2024-01-25T03:24:06;8.60;99.90
34542;DHT22;20784;51.332;12.410;2024-01-25T03:26:32;8.60;99.90
34542;DHT22;20784;51.332;12.410;2024-01-25T03:28:57;9.40;99.90
34542;DHT22;20784;51.332;12.410;2024-01-25T03:31:23;8.50;99.90
34542;DHT22;20784;51.332;12.410;2024-01-25T03:33:49;8.50;99.90
34542;DHT22;20784;51.332;12.410;2024-01-25T03:36:16;8.20;99.90
34542;DHT22;20784;51.332;12.410;2024-01-25T03:38:42;8.50;99.90
34542;DHT22;20784;51.332;12.410;2024-01-25T03:41:11;8.50;99.90
34542;DHT22;20784;51.332;12.410;2024-01-25T03:43:37;8.40;99.90
34542;DHT22;20784;51.332;12.410;2024-01-25T03:46:08;8.50;99.90
34542;DHT22;20784;51.332;12.410;2024-01-25T03:48:39;8.50;99.90
34542;DHT22;20784;51.332;12.410;2024-01-25T03:51:13;8.50;99.90
34542;DHT22;20784;51.332;12.410;2024-01-25T03:53:39;8.40;99.90
34542;DHT22;20784;51.332;12.410;2024-01-25T03:56:16;9.00;99.90
34542;DHT22;20784;51.332;12.410;2024-01-25T04:01:46;8.40;99.90
34542;DHT22;20784;51.332;12.410;2024-01-25T04:07:32;8.70;99.90
34542;DHT22;20784;51.332;12.410;2024-01-25T04:10:25;9.30;99.90
34542;DHT22;20784;51.332;12.410;2024-01-25T04:13:13;8.50;99.90
34542;DHT22;20784;51.332;12.410;2024-01-25T04:15:44;8.40;99.90
34542;DHT22;20784;51.332;12.410;2024-01-25T04:18:14;9.00;99.90
34542;DHT22;20784;51.332;12.410;2024-01-25T04:20:44;8.50;99.90
34542;DHT22;20784;51.332;12.410;2024-01-25T04:23:11;8.30;99.90
34542;DHT22;20784;51.332;12.410;2024-01-25T04:25:37;8.50;99.90
34542;DHT22;20784;51.332;12.410;2024-01-25T04:28:12;8.50;99.90
34542;DHT22;20784;51.332;12.410;2024-01-25T04:30:49;8.40;99.90
34542;DHT22;20784;51.332;12.410;2024-01-25T04:33:27;9.10;99.90
34542;DHT22;20784;51.332;12.410;2024-01-25T04:35:55;8.90;99.90
34542;DHT22;20784;51.332;12.410;2024-01-25T04:38:23;8.60;99.90
34542;DHT22;20784;51.332;12.410;2024-01-25T04:40:49;9.90;99.90
34542;DHT22;20784;51.332;12.410;2024-01-25T04:43:17;8.80;99.90
34542;DHT22;20784;51.332;12.410;2024-01-25T04:45:45;8.20;99.90
34542;DHT22;20784;51.332;12.410;2024-01-25T04:48:13;8.70;99.90
34542;DHT22;20784;51.332;12.410;2024-01-25T04:50:44;8.50;99.90
34542;DHT22;20784;51.332;12.410;2024-01-25T04:53:17;8.50;99.90
34542;DHT22;20784;51.332;12.410;2024-01-25T04:55:43;8.80;99.90
34542;DHT22;20784;51.332;12.410;2024-01-25T04:58:09;8.60;99.90
34542;DHT22;20784;51.332;12.410;2024-01-25T05:00:37;8.60;99.90
34542;DHT22;20784;51.332;12.410;2024-01-25T05:06:41;8.60;99.90
34542;DHT22;20784;51.332;12.410;2024-01-25T05:09:06;8.50;99.90
34542;DHT22;20784;51.332;12.410;2024-01-25T05:12:00;8.60;99.90
34542;DHT22;20784;51.332;12.410;2024-01-25T05:14:27;8.90;99.90
34542;DHT22;20784;51.332;12.410;2024-01-25T05:16:55;8.70;99.90
34542;DHT22;20784;51.332;12.410;2024-01-25T05:19:38;8.30;99.90
34542;DHT22;20784;51.332;12.410;2024-01-25T05:22:09;8.50;99.90
34542;DHT22;20784;51.332;12.410;2024-01-25T05:24:37;9.50;99.90
34542;DHT22;20784;51.332;12.410;2024-01-25T05:27:06;8.50;99.90
34542;DHT22;20784;51.332;12.410;2024-01-25T05:29:32;8.50;99.90
34542;DHT22;20784;51.332;12.410;2024-01-25T05:32:03;8.50;99.90
34542;DHT22;20784;51.332;12.410;2024-01-25T05:34:28;8.40;99.90
34542;DHT22;20784;51.332;12.410;2024-01-25T05:36:56;8.50;99.90
34542;DHT22;20784;51.332;12.410;2024-01-25T05:39:22;8.50;99.90
34542;DHT22;20784;51.332;12.410;2024-01-25T05:41:47;8.80;99.90
34542;DHT22;20784;51.332;12.410;2024-01-25T05:44:15;8.50;99.90
34542;DHT22;20784;51.332;12.410;2024-01-25T05:46:41;9.30;99.90
34542;DHT22;20784;51.332;12.410;2024-01-25T05:51:52;8.40;99.90
34542;DHT22;20784;51.332;12.410;2024-01-25T05:54:23;8.40;99.90
34542;DHT22;20784;51.332;12.410;2024-01-25T05:56:51;8.40;99.90
34542;DHT22;20784;51.332;12.410;2024-01-25T05:59:17;8.40;99.90
34542;DHT22;20784;51.332;12.410;2024-01-25T06:01:43;8.40;99.90
34542;DHT22;20784;51.332;12.410;2024-01-25T06:04:17;8.90;99.90
34542;DHT22;20784;51.332;12.410;2024-01-25T06:06:42;8.40;99.90
34542;DHT22;20784;51.332;12.410;2024-01-25T06:09:08;8.40;99.90
34542;DHT22;20784;51.332;12.410;2024-01-25T06:11:37;8.40;99.90
34542;DHT22;20784;51.332;12.410;2024-01-25T06:14:04;8.40;99.90
34542;DHT22;20784;51.332;12.410;2024-01-25T06:16:30;8.80;99.90
34542;DHT22;20784;51.332;12.410;2024-01-25T06:18:55;8.90;99.90
34542;DHT22;20784;51.332;12.410;2024-01-25T06:21:24;8.40;99.90
34542;DHT22;20784;51.332;12.410;2024-01-25T06:23:50;8.40;99.90
34542;DHT22;20784;51.332;12.410;2024-01-25T06:26:15;8.40;99.90
34542;DHT22;20784;51.332;12.410;2024-01-25T06:28:41;8.40;99.90
34542;DHT22;20784;51.332;12.410;2024-01-25T06:31:07;8.40;99.90
34542;DHT22;20784;51.332;12.410;2024-01-25T06:33:35;9.00;99.90
34542;DHT22;20784;51.332;12.410;2024-01-25T06:36:06;8.50;99.90
34542;DHT22;20784;51.332;12.410;2024-01-25T06:38:31;8.50;99.90
34542;DHT22;20784;51.332;12.410;2024-01-25T06:40:58;8.50;99.90
34542;DHT22;20784;51.332;12.410;2024-01-25T06:43:24;8.40;99.90
34542;DHT22;20784;51.332;12.410;2024-01-25T06:45:49;8.40;99.90
34542;DHT22;20784;51.332;12.410;2024-01-25T06:48:15;8.40;99.90
34542;DHT22;20784;51.332;12.410;2024-01-25T06:50:47;8.40;99.90
34542;DHT22;20784;51.332;12.410;2024-01-25T06:53:13;8.40;99.90
34542;DHT22;20784;51.332;12.410;2024-01-25T06:55:38;8.40;99.90
34542;DHT22;20784;51.332;12.410;2024-01-25T06:58:04;8.40;99.90
34542;DHT22;20784;51.332;12.410;2024-01-25T07:00:32;8.40;99.90
34542;DHT22;20784;51.332;12.410;2024-01-25T07:02:58;8.40;99.90
34542;DHT22;20784;51.332;12.410;2024-01-25T07:05:36;8.50;99.90
34542;DHT22;20784;51.332;12.410;2024-01-25T07:08:22;8.40;99.90
34542;DHT22;20784;51.332;12.410;2024-01-25T07:11:12;8.00;99.90
34542;DHT22;20784;51.332;12.410;2024-01-25T07:13:43;8.50;99.90
34542;DHT22;20784;51.332;12.410;2024-01-25T07:16:24;8.50;99.90
34542;DHT22;20784;51.332;12.410;2024-01-25T07:18:57;9.10;99.90
34542;DHT22;20784;51.332;12.410;2024-01-25T07:21:25;8.50;99.90
34542;DHT22;20784;51.332;12.410;2024-01-25T07:23:51;8.50;99.90
34542;DHT22;20784;51.332;12.410;2024-01-25T07:26:20;9.20;99.90
34542;DHT22;20784;51.332;12.410;2024-01-25T07:29:01;8.60;99.90
34542;DHT22;20784;51.332;12.410;2024-01-25T07:31:27;8.50;99.90
34542;DHT22;20784;51.332;12.410;2024-01-25T07:33:54;8.50;99.90
34542;DHT22;20784;51.332;12.410;2024-01-25T07:36:28;8.80;99.90
34542;DHT22;20784;51.332;12.410;2024-01-25T07:39:08;8.50;99.90
34542;DHT22;20784;51.332;12.410;2024-01-25T07:41:34;9.50;99.90
34542;DHT22;20784;51.332;12.410;2024-01-25T07:44:02;8.40;99.90
34542;DHT22;20784;51.332;12.410;2024-01-25T07:46:28;8.40;99.90
34542;DHT22;20784;51.332;12.410;2024-01-25T07:48:59;9.00;99.90
34542;DHT22;20784;51.332;12.410;2024-01-25T07:51:25;8.50;99.90
34542;DHT22;20784;51.332;12.410;2024-01-25T07:53:59;9.00;99.90
34542;DHT22;20784;51.332;12.410;2024-01-25T07:56:24;8.40;99.90
34542;DHT22;20784;51.332;12.410;2024-01-25T07:58:50;8.50;99.90
34542;DHT22;20784;51.332;12.410;2024-01-25T08:01:20;8.60;99.90
34542;DHT22;20784;51.332;12.410;2024-01-25T08:03:46;9.20;99.90
34542;DHT22;20784;51.332;12.410;2024-01-25T08:06:12;8.70;99.90
34542;DHT22;20784;51.332;12.410;2024-01-25T08:08:38;9.10;99.90
34542;DHT22;20784;51.332;12.410;2024-01-25T08:11:13;9.80;99.90
34542;DHT22;20784;51.332;12.410;2024-01-25T08:13:42;10.50;99.90
34542;DHT22;20784;51.332;12.410;2024-01-25T08:16:19;10.10;99.90
34542;DHT22;20784;51.332;12.410;2024-01-25T08:18:52;10.20;99.90
34542;DHT22;20784;51.332;12.410;2024-01-25T08:21:51;10.00;99.90
34542;DHT22;20784;51.332;12.410;2024-01-25T08:24:39;9.70;99.90
34542;DHT22;20784;51.332;12.410;2024-01-25T08:27:11;9.40;99.90
34542;DHT22;20784;51.332;12.410;2024-01-25T08:29:45;9.10;99.90
34542;DHT22;20784;51.332;12.410;2024-01-25T08:32:16;9.40;99.90
34542;DHT22;20784;51.332;12.410;2024-01-25T08:34:48;8.80;99.90
34542;DHT22;20784;51.332;12.410;2024-01-25T08:37:19;9.40;99.90
34542;DHT22;20784;51.332;12.410;2024-01-25T08:39:45;8.80;99.90
34542;DHT22;20784;51.332;12.410;2024-01-25T08:42:18;8.80;99.90
34542;DHT22;20784;51.332;12.410;2024-01-25T08:44:46;9.10;99.90
34542;DHT22;20784;51.332;12.410;2024-01-25T08:47:35;9.00;99.90
34542;DHT22;20784;51.332;12.410;2024-01-25T08:50:01;9.40;99.90
34542;DHT22;20784;51.332;12.410;2024-01-25T08:52:32;8.70;99.90
34542;DHT22;20784;51.332;12.410;2024-01-25T08:55:08;8.80;99.90
34542;DHT22;20784;51.332;12.410;2024-01-25T08:57:37;9.10;99.90
34542;DHT22;20784;51.332;12.410;2024-01-25T09:02:58;8.80;99.90
34542;DHT22;20784;51.332;12.410;2024-01-25T09:05:24;9.00;99.90
34542;DHT22;20784;51.332;12.410;2024-01-25T09:08:04;9.00;99.90
34542;DHT22;20784;51.332;12.410;2024-01-25T09:10:39;9.10;99.90
34542;DHT22;20784;51.332;12.410;2024-01-25T09:13:28;8.70;99.90
34542;DHT22;20784;51.332;12.410;2024-01-25T09:15:54;9.00;99.90
34542;DHT22;20784;51.332;12.410;2024-01-25T09:18:28;9.10;99.90
34542;DHT22;20784;51.332;12.410;2024-01-25T09:20:54;9.10;99.90
34542;DHT22;20784;51.332;12.410;2024-01-25T09:23:19;9.20;99.90
34542;DHT22;20784;51.332;12.410;2024-01-25T09:25:45;9.20;99.90
34542;DHT22;20784;51.332;12.410;2024-01-25T09:28:22;9.10;99.90
34542;DHT22;20784;51.332;12.410;2024-01-25T09:30:50;9.30;99.90
34542;DHT22;20784;51.332;12.410;2024-01-25T09:33:19;9.80;99.90
34542;DHT22;20784;51.332;12.410;2024-01-25T09:35:45;9.70;99.90
34542;DHT22;20784;51.332;12.410;2024-01-25T09:38:15;10.00;99.90
34542;DHT22;20784;51.332;12.410;2024-01-25T09:40:52;10.10;99.90
34542;DHT22;20784;51.332;12.410;2024-01-25T09:43:36;11.20;99.90
34542;DHT22;20784;51.332;12.410;2024-01-25T09:46:05;13.20;99.90
34542;DHT22;20784;51.332;12.410;2024-01-25T09:48:35;15.90;99.90
34542;DHT22;20784;51.332;12.410;2024-01-25T09:51:12;18.70;99.90
34542;DHT22;20784;51.332;12.410;2024-01-25T09:54:06;20.50;99.90
34542;DHT22;20784;51.332;12.410;2024-01-25T09:56:35;21.90;99.90
34542;DHT22;20784;51.332;12.410;2024-01-25T09:59:08;21.80;99.90
34542;DHT22;20784;51.332;12.410;2024-01-25T10:01:37;21.80;99.90
34542;DHT22;20784;51.332;12.410;2024-01-25T10:04:06;20.90;99.90
34542;DHT22;20784;51.332;12.410;2024-01-25T10:06:37;20.90;99.60
34542;DHT22;20784;51.332;12.410;2024-01-25T10:09:04;19.60;99.90
34542;DHT22;20784;51.332;12.410;2024-01-25T10:11:39;18.50;99.90
34542;DHT22;20784;51.332;12.410;2024-01-25T10:14:08;16.90;99.90
34542;DHT22;20784;51.332;12.410;2024-01-25T10:16:34;15.90;99.90
34542;DHT22;20784;51.332;12.410;2024-01-25T10:19:01;15.10;99.90
34542;DHT22;20784;51.332;12.410;2024-01-25T10:21:30;14.10;99.90
34542;DHT22;20784;51.332;12.410;2024-01-25T10:23:58;13.40;99.90
34542;DHT22;20784;51.332;12.410;2024-01-25T10:26:27;13.10;99.90
34542;DHT22;20784;51.332;12.410;2024-01-25T10:29:21;12.60;99.90
34542;DHT22;20784;51.332;12.410;2024-01-25T10:32:10;12.60;99.90
34542;DHT22;20784;51.332;12.410;2024-01-25T10:34:37;12.40;99.90
34542;DHT22;20784;51.332;12.410;2024-01-25T10:37:06;11.90;99.90
34542;DHT22;20784;51.332;12.410;2024-01-25T10:39:41;12.80;99.90
34542;DHT22;20784;51.332;12.410;2024-01-25T10:42:07;12.20;99.90
34542;DHT22;20784;51.332;12.410;2024-01-25T10:44:39;12.40;99.90
34542;DHT22;20784;51.332;12.410;2024-01-25T10:47:06;12.00;99.90
34542;DHT22;20784;51.332;12.410;2024-01-25T10:49:38;11.70;99.90
34542;DHT22;20784;51.332;12.410;2024-01-25T10:52:05;11.90;99.90
34542;DHT22;20784;51.332;12.410;2024-01-25T10:54:32;11.50;99.90
34542;DHT22;20784;51.332;12.410;2024-01-25T10:56:58;11.20;99.90
34542;DHT22;20784;51.332;12.410;2024-01-25T10:59:25;11.10;99.90
34542;DHT22;20784;51.332;12.410;2024-01-25T11:01:58;11.20;99.90
34542;DHT22;20784;51.332;12.410;2024-01-25T11:04:25;11.40;99.90
34542;DHT22;20784;51.332;12.410;2024-01-25T11:07:06;11.90;99.90
34542;DHT22;20784;51.332;12.410;2024-01-25T11:09:32;13.80;99.90
34542;DHT22;20784;51.332;12.410;2024-01-25T11:11:59;14.30;99.90
34542;DHT22;20784;51.332;12.410;2024-01-25T11:14:25;13.70;99.90
34542;DHT22;20784;51.332;12.410;2024-01-25T11:17:31;13.70;99.90
34542;DHT22;20784;51.332;12.410;2024-01-25T11:20:02;13.00;99.90
34542;DHT22;20784;51.332;12.410;2024-01-25T11:22:36;13.40;99.90
34542;DHT22;20784;51.332;12.410;2024-01-25T11:28:06;13.10;99.90
34542;DHT22;20784;51.332;12.410;2024-01-25T11:30:34;13.10;99.90
34542;DHT22;20784;51.332;12.410;2024-01-25T11:33:00;13.40;99.90
34542;DHT22;20784;51.332;12.410;2024-01-25T11:35:31;14.20;99.90
34542;DHT22;20784;51.332;12.410;2024-01-25T11:37:57;15.20;99.90
34542;DHT22;20784;51.332;12.410;2024-01-25T11:40:26;14.40;99.90
34542;DHT22;20784;51.332;12.410;2024-01-25T11:42:54;14.50;99.90
34542;DHT22;20784;51.332;12.410;2024-01-25T11:45:20;13.60;99.90
34542;DHT22;20784;51.332;12.410;2024-01-25T11:47:46;13.10;99.90
34542;DHT22;20784;51.332;12.410;2024-01-25T11:50:12;14.20;99.90
34542;DHT22;20784;51.332;12.410;2024-01-25T11:52:38;13.30;99.90
34542;DHT22;20784;51.332;12.410;2024-01-25T11:55:07;12.80;99.90
34542;DHT22;20784;51.332;12.410;2024-01-25T11:57:48;12.30;99.90
34542;DHT22;20784;51.332;12.410;2024-01-25T12:00:29;11.90;99.90
34542;DHT22;20784;51.332;12.410;2024-01-25T12:03:05;11.40;99.90
34542;DHT22;20784;51.332;12.410;2024-01-25T12:05:34;11.20;99.90
34542;DHT22;20784;51.332;12.410;2024-01-25T12:11:01;11.50;99.90
34542;DHT22;20784;51.332;12.410;2024-01-25T12:13:28;11.00;99.90
34542;DHT22;20784;51.332;12.410;2024-01-25T12:15:58;11.30;99.90
34542;DHT22;20784;51.332;12.410;2024-01-25T12:18:25;11.00;99.90
34542;DHT22;20784;51.332;12.410;2024-01-25T12:20:54;12.60;99.90
34542;DHT22;20784;51.332;12.410;2024-01-25T12:23:20;11.50;99.90
34542;DHT22;20784;51.332;12.410;2024-01-25T12:25:59;11.50;99.90
34542;DHT22;20784;51.332;12.410;2024-01-25T12:28:31;12.30;99.90
34542;DHT22;20784;51.332;12.410;2024-01-25T12:31:07;11.20;99.90
34542;DHT22;20784;51.332;12.410;2024-01-25T12:33:34;11.00;99.90
34542;DHT22;20784;51.332;12.410;2024-01-25T12:36:00;11.00;99.90
34542;DHT22;20784;51.332;12.410;2024-01-25T12:38:29;10.80;99.90
34542;DHT22;20784;51.332;12.410;2024-01-25T12:41:07;10.70;99.90
34542;DHT22;20784;51.332;12.410;2024-01-25T12:43:40;10.80;99.90
34542;DHT22;20784;51.332;12.410;2024-01-25T12:46:06;11.30;99.90
34542;DHT22;20784;51.332;12.410;2024-01-25T12:48:34;11.20;99.90
34542;DHT22;20784;51.332;12.410;2024-01-25T12:50:59;10.70;99.90
34542;DHT22;20784;51.332;12.410;2024-01-25T12:53:25;10.50;99.90
34542;DHT22;20784;51.332;12.410;2024-01-25T12:55:58;10.40;99.90
34542;DHT22;20784;51.332;12.410;2024-01-25T12:58:23;10.40;99.90
34542;DHT22;20784;51.332;12.410;2024-01-25T13:00:51;10.70;99.90
34542;DHT22;20784;51.332;12.410;2024-01-25T13:03:17;10.90;99.90
34542;DHT22;20784;51.332;12.410;2024-01-25T13:05:43;10.10;99.90
34542;DHT22;20784;51.332;12.410;2024-01-25T13:08:11;9.90;99.90
34542;DHT22;20784;51.332;12.410;2024-01-25T13:10:40;10.30;99.90
34542;DHT22;20784;51.332;12.410;2024-01-25T13:13:08;10.50;99.90
34542;DHT22;20784;51.332;12.410;2024-01-25T13:15:34;10.10;99.90
34542;DHT22;20784;51.332;12.410;2024-01-25T13:18:02;9.90;99.90
34542;DHT22;20784;51.332;12.410;2024-01-25T13:20:33;9.90;99.90
34542;DHT22;20784;51.332;12.410;2024-01-25T13:23:08;9.90;99.90
34542;DHT22;20784;51.332;12.410;2024-01-25T13:25:40;9.90;99.90
34542;DHT22;20784;51.332;12.410;2024-01-25T13:28:06;10.30;99.90
34542;DHT22;20784;51.332;12.410;2024-01-25T13:30:41;10.30;99.90
34542;DHT22;20784;51.332;12.410;2024-01-25T13:33:10;10.30;99.90
34542;DHT22;20784;51.332;12.410;2024-01-25T13:35:52;11.40;99.90
34542;DHT22;20784;51.332;12.410;2024-01-25T13:38:20;10.40;99.90
34542;DHT22;20784;51.332;12.410;2024-01-25T13:40:46;10.40;99.90
34542;DHT22;20784;51.332;12.410;2024-01-25T13:43:14;10.40;99.90
34542;DHT22;20784;51.332;12.410;2024-01-25T13:45:40;10.30;99.90
34542;DHT22;20784;51.332;12.410;2024-01-25T13:48:08;10.20;99.90
34542;DHT22;20784;51.332;12.410;2024-01-25T13:50:34;10.10;99.90
34542;DHT22;20784;51.332;12.410;2024-01-25T13:52:59;10.20;99.90
34542;DHT22;20784;51.332;12.410;2024-01-25T13:55:25;10.00;99.90
34542;DHT22;20784;51.332;12.410;2024-01-25T13:57:51;10.00;99.90
34542;DHT22;20784;51.332;12.410;2024-01-25T14:00:22;10.00;99.90
34542;DHT22;20784;51.332;12.410;2024-01-25T14:02:50;9.90;99.90
34542;DHT22;20784;51.332;12.410;2024-01-25T14:05:18;9.70;99.90
34542;DHT22;20784;51.332;12.410;2024-01-25T14:07:46;9.70;99.90
34542;DHT22;20784;51.332;12.410;2024-01-25T14:10:13;10.30;99.90
34542;DHT22;20784;51.332;12.410;2024-01-25T14:12:41;9.60;99.90
34542;DHT22;20784;51.332;12.410;2024-01-25T14:15:10;9.70;99.90
34542;DHT22;20784;51.332;12.410;2024-01-25T14:17:37;9.50;99.90
34542;DHT22;20784;51.332;12.410;2024-01-25T14:20:03;10.00;99.90
34542;DHT22;20784;51.332;12.410;2024-01-25T14:22:30;9.40;99.90
34542;DHT22;20784;51.332;12.410;2024-01-25T14:24:58;9.70;99.90
34542;DHT22;20784;51.332;12.410;2024-01-25T14:27:38;8.70;99.90
34542;DHT22;20784;51.332;12.410;2024-01-25T14:30:07;9.10;99.90
34542;DHT22;20784;51.332;12.410;2024-01-25T14:32:33;8.30;99.90
34542;DHT22;20784;51.332;12.410;2024-01-25T14:34:59;9.10;99.90
34542;DHT22;20784;51.332;12.410;2024-01-25T14:37:33;8.60;99.90
34542;DHT22;20784;51.332;12.410;2024-01-25T14:40:01;9.40;99.90
34542;DHT22;20784;51.332;12.410;2024-01-25T14:42:28;8.50;99.90
34542;DHT22;20784;51.332;12.410;2024-01-25T14:45:01;8.90;99.90
34542;DHT22;20784;51.332;12.410;2024-01-25T14:47:26;9.40;99.90
34542;DHT22;20784;51.332;12.410;2024-01-25T14:49:52;8.80;99.90
34542;DHT22;20784;51.332;12.410;2024-01-25T14:52:20;8.80;99.90
34542;DHT22;20784;51.332;12.410;2024-01-25T14:54:49;8.70;99.90
34542;DHT22;20784;51.332;12.410;2024-01-25T14:57:15;8.70;99.90
34542;DHT22;20784;51.332;12.410;2024-01-25T15:00:09;9.10;99.90
34542;DHT22;20784;51.332;12.410;2024-01-25T15:02:42;8.70;99.90
34542;DHT22;20784;51.332;12.410;2024-01-25T15:05:15;8.60;99.90
34542;DHT22;20784;51.332;12.410;2024-01-25T15:07:43;8.60;99.90
34542;DHT22;20784;51.332;12.410;2024-01-25T15:10:09;9.20;99.90
34542;DHT22;20784;51.332;12.410;2024-01-25T15:12:36;8.80;99.90
34542;DHT22;20784;51.332;12.410;2024-01-25T15:15:05;9.30;99.90
34542;DHT22;20784;51.332;12.410;2024-01-25T15:17:31;8.70;99.90
34542;DHT22;20784;51.332;12.410;2024-01-25T15:19:57;9.30;99.90
34542;DHT22;20784;51.332;12.410;2024-01-25T15:22:28;9.10;99.90
34542;DHT22;20784;51.332;12.410;2024-01-25T15:27:45;8.70;99.90
34542;DHT22;20784;51.332;12.410;2024-01-25T15:30:11;8.60;99.90
34542;DHT22;20784;51.332;12.410;2024-01-25T15:32:42;8.50;99.90
34542;DHT22;20784;51.332;12.410;2024-01-25T15:35:47;8.40;99.90
34542;DHT22;20784;51.332;12.410;2024-01-25T15:38:21;8.40;99.90
34542;DHT22;20784;51.332;12.410;2024-01-25T15:40:52;8.90;99.90
34542;DHT22;20784;51.332;12.410;2024-01-25T15:43:36;8.30;99.90
34542;DHT22;20784;51.332;12.410;2024-01-25T15:46:09;8.90;99.90
34542;DHT22;20784;51.332;12.410;2024-01-25T15:48:38;8.20;99.90
34542;DHT22;20784;51.332;12.410;2024-01-25T15:51:13;8.70;99.90
34542;DHT22;20784;51.332;12.410;2024-01-25T15:53:50;8.10;99.90
34542;DHT22;20784;51.332;12.410;2024-01-25T15:56:16;8.70;99.90
34542;DHT22;20784;51.332;12.410;2024-01-25T15:58:48;8.10;99.90
34542;DHT22;20784;51.332;12.410;2024-01-25T16:01:27;8.10;99.90
34542;DHT22;20784;51.332;12.410;2024-01-25T16:03:56;7.90;99.90
34542;DHT22;20784;51.332;12.410;2024-01-25T16:06:32;7.90;99.90
34542;DHT22;20784;51.332;12.410;2024-01-25T16:09:28;8.00;99.90
34542;DHT22;20784;51.332;12.410;2024-01-25T16:12:07;7.90;99.90
34542;DHT22;20784;51.332;12.410;2024-01-25T16:14:36;8.20;99.90
34542;DHT22;20784;51.332;12.410;2024-01-25T16:17:02;8.50;99.90
34542;DHT22;20784;51.332;12.410;2024-01-25T16:19:28;7.90;99.90
34542;DHT22;20784;51.332;12.410;2024-01-25T16:22:07;7.80;99.90